LDZDLDDU

Guest
Details From LDZD - ZADAR
To LDDU - DUBROVNIK
Flight Number -
Tags generated
Created
Modified
Stats Distance 158 nm / 292 km
Max Altitude 19,600 ft / 5,974 m
Waypoints 4
Social Downloads 1
Likes 0
Share VATSIM

Download

Looking for another format? Having issues loading an existing format? Contact us
Advertisement - Login to hide

Notes

Basic altitude profile: - Ascent Rate: 2500ft/min - Ascent Speed: 250kts - Cruise Altitude: 35000ft - Cruise Speed: 420kts - Descent Rate: 1500ft/min - Descent Speed: 250kts Options: - Use NATs: yes - Use PACOTS: yes - Use low airways: yes - Use high airways: yes

Route

LDZD ZDA L607 SPL LDDU

ID Type Via Altitude Latitude Longitude Leg Dist Tot Dist Heading (true) Name
O LDZD APT - 0 ft / 0 m 44.09723˚ 15.34798˚ - 0 nm - ZADAR
ZDA VOR - 200 ft / 61 m 44.09532˚ 15.36421˚ 0 nm 0 nm 99° / 99° ZADAR VOR-DME
SPL VOR L607 (AWY-LO) 19,600 ft / 5,974 m 43.49658˚ 16.30472˚ 54 nm 55 nm 131° / 132° SPLIT VOR-DME
O LDDU APT - 0 ft / 0 m 42.56284˚ 18.26450˚ 102 nm 157 nm 122° / 124° DUBROVNIK

Altitude Profile

Advertisement - Login to hide

LDZD

Details ICAO LDZD (ZAD)
Name ZADAR
Region Croatia
Timezone Europe/Zagreb (UTC+2.0)
Stats Elevation 289 ft / 88 m (AMSL)
Location 44.097225° 15.347978°
Runways 2
Magnetic Variation 3.750° E

METAR

LDZD 251900Z VRB02KT 9999 FEW040 21/18 Q1015 NOSIG

Decode

TAF

TAF LDZD 251725Z 2518/2618 VRB02KT CAVOK TX29/2613Z TN16/2604Z PROB30 TEMPO 2602/2604 3000 MIFG BECMG 2611/2613 29008KT PROB30 TEMPO 2612/2615 TS FEW033CB BECMG 2616/2618 VRB02KT

Decode

Departure Runways

ID Width Length Bearing (true) Bearing (mag) Surface Threshold Offset Overrun Length
04 147 ft / 45 m 6,519 ft / 1,987 m 41.52° 37.77° Asphalt 0 ft / 0 m 0 ft / 0 m
14 147 ft / 45 m 8,159 ft / 2,487 m 135.79° 132.04° Asphalt 0 ft / 0 m 0 ft / 0 m
22 147 ft / 45 m 6,519 ft / 1,987 m 221.53° 217.78° Asphalt 0 ft / 0 m 0 ft / 0 m
32 147 ft / 45 m 8,159 ft / 2,487 m 315.81° 312.06° Asphalt 0 ft / 0 m 0 ft / 0 m

LDDU

Details ICAO LDDU (DBV)
Name DUBROVNIK
Region Croatia
Timezone Europe/Zagreb (UTC+2.0)
Stats Elevation 527 ft / 161 m (AMSL)
Location 42.562840° 18.264499°
Runways 1
Magnetic Variation 4.147° E

METAR

LDDU 251900Z VRB06KT CAVOK 23/17 Q1015 NOSIG

Decode

TAF

TAF LDDU 251725Z 2518/2618 29007KT CAVOK TX26/2612Z TN20/2603Z BECMG 2518/2520 05007KT BECMG 2613/2615 29008KT PROB30 TEMPO 2613/2616 TS FEW030CB

Decode

Destination Runways

ID Width Length Bearing (true) Bearing (mag) Surface Threshold Offset Overrun Length
12 148 ft / 45 m 10,803 ft / 3,293 m 118.30° 114.15° Asphalt 488 ft / 149 m 100 ft / 30 m
30 148 ft / 45 m 10,803 ft / 3,293 m 298.33° 294.18° Asphalt 0 ft / 0 m 100 ft / 30 m

Approach Navaids

Runway Type Ident Frequency Range Bearing (true) Bearing (mag) Slope Elevation
12 Localiser IDU 110.10 MHz 25 nm / 46 km 118.21° 114.06° - 469 ft / 143 m (AMSL)
12 Glidescope IDU 110.10 MHz 25 nm / 46 km 118.21° 114.06° 3.00° 502 ft / 153 m (AMSL)